Latest Weather Observations for Strathalbyn

IDS60801

Issued at 2:51 pm CST Saturday 4 July 2020 (issued every 10 minutes, with the page automatically refreshed every 10 minutes)

About weather observations | Map of weather stations | Latest weather observations for SA | Other Formats
Station Details ID: 024580 Name: STRATHALBYN RACECOURSE Lat: -35.28 Lon: 138.89 Height: 58.0 m
Data from the previous 72 hours. | See also: Recent months at Strathalbyn
Date/Time
CST
Temp
°C
App
Temp
°C
Dew
Point
°C
Rel
Hum
%
Delta-T
°C
Wind Press
QNH
hPa
Press
MSL
hPa
Rain since
9am
mm
Dir  Spd
km/h
Gust
km/h
Spd
kts
Gust
kts
04/02:30pm 15.2 10.9 8.0 62 3.6 SW 20 28 11 15 1029.1 1029.2 0.0
04/02:00pm 15.2 10.5 9.1 67 3.1 SSW 24 30 13 16 1029.2 1029.3 0.0
04/01:30pm 15.3 11.4 8.5 64 3.4 SW 19 30 10 16 1029.3 1029.4 0.0
04/01:00pm 15.4 11.4 8.9 65 3.3 SW 20 32 11 17 1029.6 1029.7 0.0
04/12:30pm 15.2 10.4 8.9 66 3.2 SW 24 32 13 17 1029.7 1029.8 0.0
04/12:00pm 14.7 9.8 8.4 66 3.2 SW 24 33 13 18 1030.1 1030.2 0.0
04/11:30am 14.6 10.3 9.4 71 2.7 SW 22 35 12 19 1030.6 1030.7 0.0
04/11:00am 14.2 10.3 9.4 73 2.5 WSW 20 32 11 17 1030.8 1030.9 0.0
04/10:30am 13.5 8.7 9.0 74 2.3 WSW 24 33 13 18 1030.9 1031.0 0.0
04/10:00am 13.0 8.9 8.7 75 2.2 WSW 20 28 11 15 1030.7 1030.8 0.0
04/09:30am 12.2 7.6 8.1 76 2.0 WSW 22 33 12 18 1030.5 1030.6 0.0
04/09:00am 12.0 8.3 7.9 76 2.0 WSW 17 22 9 12 1030.0 1030.1 1.8
04/08:30am 11.2 6.8 7.5 78 1.8 W 20 30 11 16 1029.8 1029.9 1.8
04/08:00am 10.3 5.4 7.0 80 1.6 W 22 28 12 15 1030.0 1030.1 1.8
04/07:30am 10.1 5.3 7.2 82 1.4 W 22 28 12 15 1029.8 1029.9 1.8
04/07:00am 9.9 5.4 7.0 82 1.4 W 20 26 11 14 1029.8 1029.9 1.8
04/06:30am 10.1 5.8 7.2 82 1.4 W 19 26 10 14 1029.8 1029.9 1.8
04/06:00am 10.1 6.2 7.3 83 1.3 W 17 22 9 12 1029.7 1029.8 1.8
04/05:30am 9.8 5.5 7.1 83 1.3 W 19 24 10 13 1029.5 1029.6 1.8
04/05:00am 9.5 5.9 6.6 82 1.4 WSW 15 19 8 10 1029.4 1029.5 1.8
04/04:30am 9.3 5.7 6.6 83 1.2 W 15 20 8 11 1029.5 1029.6 1.8
04/04:00am 8.6 5.2 5.9 83 1.2 W 13 19 7 10 1029.6 1029.7 1.8
04/03:30am 8.7 4.1 5.8 82 1.3 W 19 24 10 13 1029.4 1029.5 1.8
04/03:00am 8.7 4.2 6.0 83 1.2 W 19 26 10 14 1029.4 1029.5 1.8
04/02:30am 8.5 4.3 5.8 83 1.2 W 17 22 9 12 1029.4 1029.5 1.8
04/02:00am 8.3 4.5 5.8 84 1.1 W 15 20 8 11 1029.4 1029.5 1.8
04/01:30am 8.8 4.7 6.4 85 1.1 WSW 17 26 9 14 1029.5 1029.6 1.8
04/01:00am 8.8 4.2 5.7 81 1.4 W 19 24 10 13 1029.5 1029.6 1.8
04/12:30am 8.8 5.3 5.4 79 1.5 WSW 13 20 7 11 1029.6 1029.7 1.8
04/12:00am 9.6 6.2 6.0 78 1.6 WSW 13 17 7 9 1029.7 1029.8 1.8
 
Date/Time
CST
Temp
°C
App
Temp
°C
Dew
Point
°C
Rel
Hum
%
Delta-T
°C
Wind Press
QNH
hPa
Press
MSL
hPa
Rain since
9am
mm
Dir  Spd
km/h
Gust
km/h
Spd
kts
Gust
kts
03/11:30pm 9.6 6.2 5.8 77 1.7 W 13 17 7 9 1029.7 1029.8 1.8
03/11:00pm 9.6 5.8 5.8 77 1.7 WSW 15 20 8 11 1029.7 1029.8 1.8
03/10:30pm 9.8 6.0 5.6 75 1.9 W 15 20 8 11 1029.6 1029.7 1.8
03/10:00pm 9.7 5.5 5.5 75 1.9 W 17 20 9 11 1029.3 1029.4 1.8
03/09:30pm 9.3 5.9 5.7 78 1.6 W 13 17 7 9 1029.3 1029.4 1.8
03/09:00pm 9.8 5.2 5.6 75 1.9 WSW 19 26 10 14 1029.3 1029.4 1.8
03/08:30pm 9.4 5.6 5.8 78 1.6 W 15 20 8 11 1028.9 1029.0 1.8
03/08:00pm 9.2 6.7 6.5 83 1.3 W 9 13 5 7 1028.8 1028.9 1.8
03/07:30pm 9.4 6.5 6.7 83 1.3 SW 11 15 6 8 1028.6 1028.7 1.8
03/07:00pm 8.9 6.1 6.9 87 0.9 W 11 13 6 7 1028.3 1028.4 1.6
03/06:30pm 9.2 7.2 7.2 87 0.9 WSW 7 9 4 5 1028.0 1028.1 1.6
03/06:00pm 9.5 6.4 7.3 86 1.0 WSW 13 20 7 11 1028.0 1028.1 1.2
03/05:30pm 9.7 6.5 6.8 82 1.4 WSW 13 22 7 12 1027.5 1027.6 1.0
03/05:00pm 10.2 5.6 6.4 77 1.8 SSW 20 35 11 19 1027.0 1027.1 1.0
03/04:30pm 10.1 5.1 6.4 78 1.7 SSW 22 32 12 17 1026.4 1026.5 1.0
03/04:00pm 10.7 5.7 6.3 74 2.1 SSW 22 30 12 16 1025.9 1026.0 1.0
03/03:30pm 12.3 6.6 6.6 68 2.7 SW 26 37 14 20 1025.7 1025.8 1.0
03/03:00pm 11.3 6.0 6.6 73 2.2 SW 24 39 13 21 1025.3 1025.4 1.0
03/02:30pm 12.1 5.9 6.2 67 2.8 SW 28 37 15 20 1024.9 1024.9 1.0
03/02:00pm 12.2 6.1 6.5 68 2.7 SW 28 39 15 21 1024.7 1024.7 1.0
03/01:30pm 12.6 5.8 6.9 68 2.7 SSW 32 46 17 25 1024.3 1024.3 1.0
03/01:00pm 12.1 7.0 9.1 82 1.5 SSW 26 33 14 18 1024.5 1024.5 1.0
03/12:30pm 11.1 5.6 9.2 88 0.9 SSW 28 39 15 21 1024.4 1024.4 1.0
03/12:00pm 10.7 3.9 9.1 90 0.8 SSW 35 48 19 26 1024.3 1024.3 1.0
03/11:30am 11.5 5.3 9.2 86 1.1 SW 32 46 17 25 1024.0 1024.0 0.6
03/11:23am 11.6 6.1 9.2 85 1.2 SW 28 46 15 25 1024.0 1024.0 0.6
03/11:00am 12.8 8.9 9.6 81 1.6 SW 20 35 11 19 1023.8 1023.8 0.2
03/10:30am 13.6 8.8 8.7 72 2.5 SW 24 35 13 19 1023.4 1023.4 0.0
03/10:00am 13.2 8.8 9.1 76 2.1 WSW 22 35 12 19 1022.9 1022.9 0.0
03/09:30am 12.3 8.6 9.5 83 1.4 W 19 26 10 14 1022.4 1022.4 0.0
03/09:00am 12.4 7.7 9.4 82 1.5 W 24 35 13 19 1021.9 1021.9 2.4
03/08:30am 12.3 7.5 8.8 79 1.7 W 24 39 13 21 1021.4 1021.4 2.4
03/08:00am 12.0 7.9 8.7 80 1.6 W 20 33 11 18 1021.1 1021.1 2.4
03/07:30am 11.4 6.9 8.6 83 1.4 WNW 22 35 12 19 1021.1 1021.1 2.4
03/07:00am 11.4 6.4 7.9 79 1.7 WNW 24 35 13 19 1020.7 1020.7 2.4
03/06:30am 11.3 7.0 8.0 80 1.6 WNW 20 30 11 16 1020.2 1020.2 2.0
03/06:00am 11.5 6.9 8.0 79 1.7 WNW 22 32 12 17 1020.1 1020.1 2.0
03/05:30am 11.3 6.7 8.0 80 1.6 WNW 22 33 12 18 1019.7 1019.8 1.6
03/05:00am 11.2 7.1 7.9 80 1.6 WNW 19 32 10 17 1019.8 1019.9 1.4
03/04:30am 11.4 7.1 7.9 79 1.7 WNW 20 30 11 16 1020.0 1020.0 1.4
03/04:00am 11.0 6.2 7.5 79 1.7 WNW 22 32 12 17 1020.1 1020.1 1.4
03/03:30am 11.1 6.9 7.4 78 1.8 WNW 19 32 10 17 1020.1 1020.1 1.4
03/03:00am 11.3 6.5 7.2 76 2.0 WNW 22 33 12 18 1020.3 1020.3 1.4
03/02:30am 11.2 6.8 7.3 77 1.9 WNW 20 32 11 17 1020.3 1020.3 1.4
03/02:00am 11.2 6.4 7.3 77 1.9 WNW 22 32 12 17 1020.2 1020.2 1.4
03/01:30am 10.8 6.4 7.3 79 1.7 WNW 20 32 11 17 1020.3 1020.3 1.4
03/01:00am 10.7 6.3 7.4 80 1.6 WNW 20 26 11 14 1020.3 1020.3 1.4
03/12:30am 10.1 5.9 7.3 83 1.3 WNW 19 26 10 14 1020.4 1020.4 1.4
03/12:00am 9.4 6.6 7.0 85 1.1 WNW 11 20 6 11 1020.8 1020.8 1.4
 
Date/Time
CST
Temp
°C
App
Temp
°C
Dew
Point
°C
Rel
Hum
%
Delta-T
°C
Wind Press
QNH
hPa
Press
MSL
hPa
Rain since
9am
mm
Dir  Spd
km/h
Gust
km/h
Spd
kts
Gust
kts
02/11:30pm 8.8 6.7 6.8 87 0.9 NE 7 11 4 6 1020.8 1020.8 1.4
02/11:00pm 8.1 5.8 5.0 81 1.4 S 6 9 3 5 1021.0 1021.0 1.4
02/10:30pm 8.0 5.7 4.9 81 1.4 NW 6 9 3 5 1021.0 1021.0 1.4
02/10:00pm 8.2 5.4 5.1 81 1.4 N 9 11 5 6 1020.9 1020.9 1.4
02/09:30pm 8.0 5.4 4.0 76 1.7 NNW 7 9 4 5 1020.8 1020.8 1.2
02/09:00pm 8.7 5.5 4.9 77 1.7 WNW 11 17 6 9 1020.8 1020.8 1.2
02/08:30pm 9.2 4.9 5.2 76 1.8 WNW 17 20 9 11 1020.5 1020.5 1.2
02/08:00pm 8.8 5.2 5.2 78 1.6 WNW 13 20 7 11 1020.1 1020.1 1.2
02/07:30pm 9.3 5.5 5.9 79 1.6 WNW 15 24 8 13 1019.7 1019.8 1.2
02/07:00pm 8.6 5.0 5.2 79 1.5 WNW 13 15 7 8 1019.5 1019.6 1.2
02/06:30pm 8.4 5.7 5.7 83 1.2 WNW 9 13 5 7 1019.2 1019.3 1.2
02/06:00pm 8.0 5.7 4.9 81 1.4 W 6 6 3 3 1019.0 1019.1 1.2
02/05:30pm 9.1 6.1 6.0 81 1.4 W 11 13 6 7 1018.7 1018.8 1.2
02/05:00pm 10.6 6.5 6.2 74 2.1 W 17 24 9 13 1018.7 1018.8 0.8
02/04:30pm 10.8 6.9 5.3 69 2.5 W 15 20 8 11 1018.3 1018.4 0.8
02/04:00pm 11.6 5.9 4.8 63 3.1 W 24 32 13 17 1017.9 1018.0 0.8
02/03:30pm 12.2 6.6 5.6 64 3.1 WSW 24 35 13 19 1017.7 1017.8 0.8
02/03:00pm 11.8 4.8 5.9 67 2.8 W 32 61 17 33 1017.4 1017.5 0.8
02/02:53pm 11.8 4.9 4.5 61 3.3 W 30 61 16 33 1017.3 1017.4 0.8
02/02:30pm 12.7 6.3 5.4 61 3.4 W 28 44 15 24 1017.1 1017.2 0.8
02/02:00pm 12.7 7.6 5.8 63 3.2 W 22 33 12 18 1016.9 1017.0 0.8
02/01:30pm 12.7 7.9 5.4 61 3.4 W 20 33 11 18 1016.8 1016.9 0.8
02/01:00pm 11.9 5.4 4.6 61 3.3 W 28 41 15 22 1016.9 1017.0 0.8
02/12:30pm 11.1 6.4 6.0 71 2.4 WNW 20 28 11 15 1017.0 1017.1 0.8
02/12:00pm 11.0 6.6 6.4 73 2.2 WNW 19 28 10 15 1017.1 1017.2 0.8
02/11:33am 10.3 4.1 6.1 75 2.0 W 28 46 15 25 1017.4 1017.5 0.8
02/11:30am 10.5 3.4 5.7 72 2.2 W 32 46 17 25 1017.5 1017.6 0.8
02/11:22am 11.7 5.8 5.8 67 2.8 W 26 46 14 25 1017.4 1017.5 0.6
02/11:00am 12.4 9.0 7.7 73 2.3 WNW 15 22 8 12 1017.1 1017.2 0.6
02/10:30am 9.3 5.1 5.7 78 1.6 W 17 22 9 12 1017.1 1017.2 0.6
02/10:18am 10.0 4.3 5.0 71 2.3 W 24 44 13 24 1017.4 1017.5 0.2
02/10:00am 12.1 7.7 6.4 68 2.7 NW 19 26 10 14 1016.9 1017.0 0.0
02/09:30am 10.5 6.8 6.5 76 1.9 NW 15 20 8 11 1016.4 1016.5 0.0
02/09:00am 9.4 6.0 5.9 79 1.6 NW 13 17 7 9 1016.1 1016.2 10.4
02/08:30am 10.0 5.4 5.8 75 1.9 NW 19 26 10 14 1015.8 1015.9 9.8
02/08:00am 8.7 4.7 5.1 78 1.6 NW 15 20 8 11 1015.4 1015.5 9.8
02/07:30am 8.4 4.4 5.0 79 1.5 WNW 15 19 8 10 1015.0 1015.1 9.8
02/07:00am 8.1 4.4 4.3 77 1.7 NW 13 17 7 9 1014.7 1014.8 9.8
02/06:30am 8.2 4.1 4.6 78 1.6 NW 15 20 8 11 1014.2 1014.3 9.8
02/06:00am 8.4 4.4 4.8 78 1.6 NW 15 19 8 10 1013.8 1013.9 9.8
02/05:30am 8.1 4.5 4.9 80 1.4 NW 13 17 7 9 1013.6 1013.7 9.8
02/05:00am 8.5 4.1 4.7 77 1.7 WNW 17 19 9 10 1013.2 1013.3 9.8
02/04:30am 8.6 4.2 4.8 77 1.7 NW 17 20 9 11 1013.0 1013.1 9.8
02/04:00am 8.9 5.2 4.5 74 1.9 WNW 13 19 7 10 1012.8 1012.9 9.8
02/03:30am 8.8 5.5 4.4 74 1.9 W 11 13 6 7 1012.5 1012.6 9.8
02/03:00am 9.3 5.4 5.3 76 1.8 W 15 20 8 11 1012.3 1012.4 9.8
02/02:30am 9.8 4.7 5.8 76 1.8 W 22 30 12 16 1011.7 1011.8 9.8
02/02:00am 9.5 4.3 5.7 77 1.7 W 22 30 12 16 1011.5 1011.6 9.8
02/01:30am 9.2 1.1 5.4 77 1.7 W 37 65 20 35 1011.6 1011.7 9.6
02/01:20am 10.1 3.4 5.5 73 2.1 W 30 54 16 29 1011.6 1011.7 9.0
02/01:00am 10.0 3.6 5.2 72 2.2 WNW 28 44 15 24 1011.0 1011.1 8.8
02/12:30am 9.1 4.4 6.0 81 1.4 W 20 28 11 15 1011.2 1011.3 8.8
02/12:20am 8.6 1.7 4.6 76 1.8 W 30 48 16 26 1011.6 1011.7 8.8
02/12:16am 10.5 3.9 5.9 73 2.1 W 30 48 16 26 1011.8 1011.9 8.4
02/12:00am 10.6 4.1 6.4 75 2.0 NW 30 46 16 25 1010.5 1010.5 8.4
 
Date/Time
CST
Temp
°C
App
Temp
°C
Dew
Point
°C
Rel
Hum
%
Delta-T
°C
Wind Press
QNH
hPa
Press
MSL
hPa
Rain since
9am
mm
Dir  Spd
km/h
Gust
km/h
Spd
kts
Gust
kts
01/11:54pm 10.6 4.5 6.4 75 2.0 NW 28 46 15 25 1010.5 1010.5 8.4
01/11:30pm 10.2 4.7 6.0 75 1.9 WNW 24 35 13 19 1010.5 1010.5 8.4
01/11:00pm 10.1 4.9 5.7 74 2.0 W 22 33 12 18 1010.2 1010.2 8.4
01/10:30pm 10.7 4.8 7.4 80 1.6 WNW 28 39 15 21 1010.3 1010.3 8.2
01/10:01pm 11.0 4.2 6.7 75 2.0 NW 32 50 17 27 1009.3 1009.3 7.6
01/10:00pm 11.0 4.5 6.7 75 2.0 NW 30 43 16 23 1009.4 1009.4 7.6
01/09:30pm 11.2 4.7 6.7 74 2.1 WNW 30 41 16 22 1009.0 1009.0 7.6
01/09:00pm 11.7 6.1 7.0 73 2.3 NW 26 41 14 22 1008.8 1008.8 7.6
01/08:30pm 11.5 5.3 7.8 78 1.8 WNW 30 50 16 27 1008.6 1008.6 7.4
01/08:21pm 11.5 5.6 7.6 77 1.9 NW 28 46 15 25 1008.5 1008.5 7.2
01/08:00pm 11.1 5.7 6.5 73 2.2 NW 24 33 13 18 1008.3 1008.3 7.0
01/07:30pm 11.0 4.4 6.0 71 2.3 NW 30 39 16 21 1008.0 1008.0 7.0
01/07:00pm 10.8 5.2 7.3 79 1.7 WNW 26 43 14 23 1008.2 1008.2 6.2
01/06:30pm 10.7 3.9 7.6 81 1.5 W 33 48 18 26 1008.6 1008.6 5.0
01/06:00pm 11.1 5.4 8.5 84 1.3 WSW 28 50 15 27 1007.7 1007.7 2.6
01/05:58pm 11.0 6.1 8.4 84 1.3 WSW 24 50 13 27 1007.7 1007.7 2.6
01/05:30pm 12.0 8.0 9.2 83 1.4 W 20 28 11 15 1007.1 1007.1 0.8
01/05:02pm 13.4 7.2 9.3 76 2.1 W 32 50 17 27 1006.5 1006.5 0.0
01/05:00pm 13.8 7.4 9.3 74 2.3 W 33 50 18 27 1006.2 1006.2 0.0
01/04:54pm 14.3 7.0 8.7 69 2.8 W 37 56 20 30 1006.0 1006.0 0.0
01/04:45pm 15.1 6.8 7.9 62 3.6 WNW 41 65 22 35 1005.5 1005.5 0.0
01/04:40pm 17.1 10.0 6.3 49 5.3 NW 33 65 18 35 1005.0 1005.0 0.0
01/04:30pm 17.7 10.7 4.3 41 6.4 NW 30 46 16 25 1004.7 1004.7 0.0
01/04:01pm 17.9 11.4 4.5 41 6.4 NNW 28 46 15 25 1004.4 1004.4 0.0
01/04:00pm 17.8 11.8 5.1 43 6.1 NNW 26 37 14 20 1004.4 1004.4 0.0
01/03:34pm 18.0 10.8 4.9 42 6.3 NW 32 50 17 27 1004.5 1004.5 0.0
01/03:30pm 17.9 10.5 4.8 42 6.3 NW 33 50 18 27 1004.5 1004.5 0.0
01/03:04pm 19.0 11.6 5.1 40 6.8 NW 33 52 18 28 1004.7 1004.7 0.0
01/03:00pm 19.0 11.3 5.5 41 6.6 NW 35 48 19 26 1004.6 1004.6 0.0

Other formats

Comma delimited format used in spreadsheet applications
http://www.bom.gov.au/fwo/IDS60801/IDS60801.94814.axf

JavaScript Object Notation format (JSON) in row-major order
http://www.bom.gov.au/fwo/IDS60801/IDS60801.94814.json

Data quality

Most of these data are generated automatically and are frequently updated. Quality checks on data are not normally performed. It is possible for incorrect values to appear. Refer to information at About Latest Weather Observations and please check the disclaimer before using these data.